Glencross, South Dakota
Current Conditions -  °F | °C
As of 12:02 PM on Thursday 30 Oct 2014 (Local Time) from KMBG Reporting Station
Broken Clouds Broken Clouds  
Wind Chill: 35°   Ceiling: 1800
Heat Index: 42°   Visibility: 10mi
Dew Point: 32°   Wind: 14mph
Humidity: 67%   Direction: 10°N
Pressure: 30.32"   Gusts: 25mph
Location:  45.45°N, 100.92°W
Report Text: KMBG 301802Z AUTO 01012G22KT 10SM BKN018 06/00 A3032 RMK AO2 T00560000
Loading
Personal Weather Stations






























Interactive Weather Map
Tropical Storm Tracking
New forecast layout! Learn more

10-Day Weather Forecast

Advertisements
Track Severe Weather on mobile